sensor_id;sensor_type;location;lat;lon;timestamp;pressure;altitude;pressure_sealevel;temperature;humidity
59531;BME280;45349;48.692;8.186;2023-02-15T00:01:21;100060.47;;;-0.90;100.00
59531;BME280;45349;48.692;8.186;2023-02-15T00:03:48;100061.19;;;-0.84;100.00
59531;BME280;45349;48.692;8.186;2023-02-15T00:06:15;100057.94;;;-0.91;100.00
59531;BME280;45349;48.692;8.186;2023-02-15T00:08:41;100050.97;;;-0.86;100.00
59531;BME280;45349;48.692;8.186;2023-02-15T00:11:09;100048.31;;;-0.83;100.00
59531;BME280;45349;48.692;8.186;2023-02-15T00:13:38;100046.53;;;-0.81;100.00
59531;BME280;45349;48.692;8.186;2023-02-15T00:16:09;100050.69;;;-0.77;100.00
59531;BME280;45349;48.692;8.186;2023-02-15T00:18:37;100048.81;;;-0.70;100.00
59531;BME280;45349;48.692;8.186;2023-02-15T00:21:04;100051.13;;;-0.61;100.00
59531;BME280;45349;48.692;8.186;2023-02-15T00:23:31;100039.09;;;-0.58;100.00
59531;BME280;45349;48.692;8.186;2023-02-15T00:26:05;100043.34;;;-0.57;100.00
59531;BME280;45349;48.692;8.186;2023-02-15T00:28:32;100038.25;;;-0.59;100.00
59531;BME280;45349;48.692;8.186;2023-02-15T00:31:04;100038.31;;;-0.61;100.00
59531;BME280;45349;48.692;8.186;2023-02-15T00:33:34;100033.28;;;-0.65;100.00
59531;BME280;45349;48.692;8.186;2023-02-15T00:36:01;100047.88;;;-0.67;100.00
59531;BME280;45349;48.692;8.186;2023-02-15T00:38:28;100033.47;;;-0.71;100.00
59531;BME280;45349;48.692;8.186;2023-02-15T00:40:56;100031.03;;;-0.76;100.00
59531;BME280;45349;48.692;8.186;2023-02-15T00:43:24;100035.38;;;-0.78;100.00
59531;BME280;45349;48.692;8.186;2023-02-15T00:45:50;100033.69;;;-0.79;100.00
59531;BME280;45349;48.692;8.186;2023-02-15T00:48:19;100033.81;;;-0.84;100.00
59531;BME280;45349;48.692;8.186;2023-02-15T00:50:46;100039.78;;;-0.83;100.00
59531;BME280;45349;48.692;8.186;2023-02-15T00:53:15;100037.34;;;-0.88;100.00
59531;BME280;45349;48.692;8.186;2023-02-15T00:55:41;100039.09;;;-0.90;100.00
59531;BME280;45349;48.692;8.186;2023-02-15T00:58:09;100042.56;;;-0.91;100.00
59531;BME280;45349;48.692;8.186;2023-02-15T01:00:36;100035.72;;;-0.91;100.00
59531;BME280;45349;48.692;8.186;2023-02-15T01:03:03;100039.16;;;-0.92;100.00
59531;BME280;45349;48.692;8.186;2023-02-15T01:05:31;100032.44;;;-0.96;100.00
59531;BME280;45349;48.692;8.186;2023-02-15T01:07:59;100028.13;;;-0.94;100.00
59531;BME280;45349;48.692;8.186;2023-02-15T01:10:27;100029.19;;;-1.02;100.00
59531;BME280;45349;48.692;8.186;2023-02-15T01:12:55;100029.25;;;-1.04;100.00
59531;BME280;45349;48.692;8.186;2023-02-15T01:15:22;100028.41;;;-1.05;100.00
59531;BME280;45349;48.692;8.186;2023-02-15T01:17:49;100026.78;;;-1.07;100.00
59531;BME280;45349;48.692;8.186;2023-02-15T01:20:23;100021.59;;;-1.06;100.00
59531;BME280;45349;48.692;8.186;2023-02-15T01:22:52;100026.69;;;-1.04;100.00
59531;BME280;45349;48.692;8.186;2023-02-15T01:25:19;100020.69;;;-1.03;100.00
59531;BME280;45349;48.692;8.186;2023-02-15T01:27:47;100013.91;;;-1.06;100.00
59531;BME280;45349;48.692;8.186;2023-02-15T01:30:14;100012.19;;;-1.05;100.00
59531;BME280;45349;48.692;8.186;2023-02-15T01:32:42;100004.66;;;-1.11;100.00
59531;BME280;45349;48.692;8.186;2023-02-15T01:35:10;99996.41;;;-1.21;100.00
59531;BME280;45349;48.692;8.186;2023-02-15T01:37:37;99998.34;;;-1.29;100.00
59531;BME280;45349;48.692;8.186;2023-02-15T01:40:08;99997.81;;;-1.42;100.00
59531;BME280;45349;48.692;8.186;2023-02-15T01:42:35;99999.72;;;-1.51;100.00
59531;BME280;45349;48.692;8.186;2023-02-15T01:45:03;100006.78;;;-1.59;100.00
59531;BME280;45349;48.692;8.186;2023-02-15T01:47:34;100005.28;;;-1.68;100.00
59531;BME280;45349;48.692;8.186;2023-02-15T01:50:08;100008.06;;;-1.75;100.00
59531;BME280;45349;48.692;8.186;2023-02-15T01:52:37;100007.41;;;-1.84;100.00
59531;BME280;45349;48.692;8.186;2023-02-15T01:55:07;100009.75;;;-1.76;100.00
59531;BME280;45349;48.692;8.186;2023-02-15T01:57:34;100009.69;;;-1.73;100.00
59531;BME280;45349;48.692;8.186;2023-02-15T02:00:05;100010.50;;;-1.71;100.00
59531;BME280;45349;48.692;8.186;2023-02-15T02:02:38;100003.47;;;-1.63;100.00
59531;BME280;45349;48.692;8.186;2023-02-15T02:05:06;100010.09;;;-1.55;100.00
59531;BME280;45349;48.692;8.186;2023-02-15T02:07:35;100009.81;;;-1.44;100.00
59531;BME280;45349;48.692;8.186;2023-02-15T02:10:08;100009.56;;;-1.34;100.00
59531;BME280;45349;48.692;8.186;2023-02-15T02:12:35;100005.94;;;-1.26;100.00
59531;BME280;45349;48.692;8.186;2023-02-15T02:15:04;100001.44;;;-1.18;100.00
59531;BME280;45349;48.692;8.186;2023-02-15T02:17:40;99995.31;;;-1.12;100.00
59531;BME280;45349;48.692;8.186;2023-02-15T02:23:38;100000.19;;;-1.05;100.00
59531;BME280;45349;48.692;8.186;2023-02-15T02:26:35;99995.84;;;-1.01;100.00
59531;BME280;45349;48.692;8.186;2023-02-15T02:32:24;99992.34;;;-0.98;100.00
59531;BME280;45349;48.692;8.186;2023-02-15T02:35:01;99989.19;;;-1.07;100.00
59531;BME280;45349;48.692;8.186;2023-02-15T02:37:38;99987.53;;;-1.09;100.00
59531;BME280;45349;48.692;8.186;2023-02-15T02:40:13;99984.81;;;-1.05;100.00
59531;BME280;45349;48.692;8.186;2023-02-15T02:42:44;99984.06;;;-1.07;100.00
59531;BME280;45349;48.692;8.186;2023-02-15T02:45:20;99981.44;;;-1.05;100.00
59531;BME280;45349;48.692;8.186;2023-02-15T02:47:52;99981.38;;;-1.04;100.00
59531;BME280;45349;48.692;8.186;2023-02-15T02:50:26;99975.56;;;-1.09;100.00
59531;BME280;45349;48.692;8.186;2023-02-15T02:52:55;99968.94;;;-1.16;100.00
59531;BME280;45349;48.692;8.186;2023-02-15T02:55:26;99969.91;;;-1.20;100.00
59531;BME280;45349;48.692;8.186;2023-02-15T02:58:00;99964.91;;;-1.25;100.00
59531;BME280;45349;48.692;8.186;2023-02-15T03:00:31;99954.16;;;-1.38;100.00
59531;BME280;45349;48.692;8.186;2023-02-15T03:03:03;99958.56;;;-1.43;100.00
59531;BME280;45349;48.692;8.186;2023-02-15T03:05:36;99945.88;;;-1.48;100.00
59531;BME280;45349;48.692;8.186;2023-02-15T03:08:05;99960.31;;;-1.45;100.00
59531;BME280;45349;48.692;8.186;2023-02-15T03:10:36;99965.69;;;-1.54;100.00
59531;BME280;45349;48.692;8.186;2023-02-15T03:13:04;99980.97;;;-1.51;100.00
59531;BME280;45349;48.692;8.186;2023-02-15T03:15:32;99969.94;;;-1.53;100.00
59531;BME280;45349;48.692;8.186;2023-02-15T03:18:16;99970.59;;;-1.46;100.00
59531;BME280;45349;48.692;8.186;2023-02-15T03:20:46;99970.59;;;-1.46;100.00
59531;BME280;45349;48.692;8.186;2023-02-15T03:23:18;99961.94;;;-1.42;100.00
59531;BME280;45349;48.692;8.186;2023-02-15T03:25:50;99963.53;;;-1.37;100.00
59531;BME280;45349;48.692;8.186;2023-02-15T03:28:25;99970.00;;;-1.25;100.00
59531;BME280;45349;48.692;8.186;2023-02-15T03:30:56;99969.03;;;-1.19;100.00
59531;BME280;45349;48.692;8.186;2023-02-15T03:33:26;99958.59;;;-1.13;100.00
59531;BME280;45349;48.692;8.186;2023-02-15T03:36:01;99970.38;;;-1.07;100.00
59531;BME280;45349;48.692;8.186;2023-02-15T03:38:34;99962.66;;;-1.06;100.00
59531;BME280;45349;48.692;8.186;2023-02-15T03:41:04;99974.56;;;-1.05;100.00
59531;BME280;45349;48.692;8.186;2023-02-15T03:43:42;99973.91;;;-1.11;100.00
59531;BME280;45349;48.692;8.186;2023-02-15T03:46:14;99974.78;;;-1.11;100.00
59531;BME280;45349;48.692;8.186;2023-02-15T03:48:44;99984.22;;;-1.13;100.00
59531;BME280;45349;48.692;8.186;2023-02-15T03:51:17;99979.09;;;-1.13;100.00
59531;BME280;45349;48.692;8.186;2023-02-15T03:54:03;99979.03;;;-1.10;100.00
59531;BME280;45349;48.692;8.186;2023-02-15T03:56:31;99982.38;;;-1.08;100.00
59531;BME280;45349;48.692;8.186;2023-02-15T03:58:59;99972.22;;;-1.11;100.00
59531;BME280;45349;48.692;8.186;2023-02-15T04:01:47;99976.66;;;-1.17;100.00
59531;BME280;45349;48.692;8.186;2023-02-15T04:04:28;99973.28;;;-1.20;100.00
59531;BME280;45349;48.692;8.186;2023-02-15T04:06:59;99966.50;;;-1.21;100.00
59531;BME280;45349;48.692;8.186;2023-02-15T04:09:25;99956.25;;;-1.21;100.00
59531;BME280;45349;48.692;8.186;2023-02-15T04:12:10;99955.50;;;-1.24;100.00
59531;BME280;45349;48.692;8.186;2023-02-15T04:14:36;99957.19;;;-1.23;100.00
59531;BME280;45349;48.692;8.186;2023-02-15T04:17:20;99961.44;;;-1.22;100.00
59531;BME280;45349;48.692;8.186;2023-02-15T04:19:47;99967.34;;;-1.20;100.00
59531;BME280;45349;48.692;8.186;2023-02-15T04:22:33;99963.94;;;-1.21;100.00
59531;BME280;45349;48.692;8.186;2023-02-15T04:25:16;99961.28;;;-1.17;100.00
59531;BME280;45349;48.692;8.186;2023-02-15T04:27:46;99964.25;;;-1.31;100.00
59531;BME280;45349;48.692;8.186;2023-02-15T04:32:55;99963.56;;;-1.38;100.00
59531;BME280;45349;48.692;8.186;2023-02-15T04:35:22;99961.16;;;-1.44;100.00
59531;BME280;45349;48.692;8.186;2023-02-15T04:37:50;99961.94;;;-1.42;100.00
59531;BME280;45349;48.692;8.186;2023-02-15T04:40:17;99961.94;;;-1.41;100.00
59531;BME280;45349;48.692;8.186;2023-02-15T04:42:43;99968.75;;;-1.41;100.00
59531;BME280;45349;48.692;8.186;2023-02-15T04:45:13;99967.84;;;-1.39;100.00
59531;BME280;45349;48.692;8.186;2023-02-15T04:47:40;99966.97;;;-1.38;100.00
59531;BME280;45349;48.692;8.186;2023-02-15T04:50:07;99967.88;;;-1.40;100.00
59531;BME280;45349;48.692;8.186;2023-02-15T04:52:34;99967.94;;;-1.42;100.00
59531;BME280;45349;48.692;8.186;2023-02-15T04:55:03;99957.53;;;-1.37;100.00
59531;BME280;45349;48.692;8.186;2023-02-15T04:57:29;99956.66;;;-1.36;100.00
59531;BME280;45349;48.692;8.186;2023-02-15T04:59:56;99953.22;;;-1.35;100.00
59531;BME280;45349;48.692;8.186;2023-02-15T05:02:24;99944.63;;;-1.32;100.00
59531;BME280;45349;48.692;8.186;2023-02-15T05:04:50;99942.00;;;-1.31;100.00
59531;BME280;45349;48.692;8.186;2023-02-15T05:07:17;99938.56;;;-1.30;100.00
59531;BME280;45349;48.692;8.186;2023-02-15T05:09:45;99940.41;;;-1.35;100.00
59531;BME280;45349;48.692;8.186;2023-02-15T05:12:13;99944.97;;;-1.45;100.00
59531;BME280;45349;48.692;8.186;2023-02-15T05:14:40;99940.81;;;-1.49;100.00
59531;BME280;45349;48.692;8.186;2023-02-15T05:17:06;99949.28;;;-1.47;100.00
59531;BME280;45349;48.692;8.186;2023-02-15T05:19:33;99950.09;;;-1.45;100.00
59531;BME280;45349;48.692;8.186;2023-02-15T05:22:00;99957.78;;;-1.46;100.00
59531;BME280;45349;48.692;8.186;2023-02-15T05:24:26;99955.16;;;-1.43;100.00
59531;BME280;45349;48.692;8.186;2023-02-15T05:27:12;99956.09;;;-1.46;100.00
59531;BME280;45349;48.692;8.186;2023-02-15T05:29:57;99959.56;;;-1.49;100.00
59531;BME280;45349;48.692;8.186;2023-02-15T05:32:23;99974.91;;;-1.47;100.00
59531;BME280;45349;48.692;8.186;2023-02-15T05:34:50;99967.31;;;-1.52;100.00
59531;BME280;45349;48.692;8.186;2023-02-15T05:37:16;99962.97;;;-1.48;100.00
59531;BME280;45349;48.692;8.186;2023-02-15T05:39:43;99962.13;;;-1.49;100.00
59531;BME280;45349;48.692;8.186;2023-02-15T05:42:10;99974.03;;;-1.48;100.00
59531;BME280;45349;48.692;8.186;2023-02-15T05:44:38;99977.41;;;-1.45;100.00
59531;BME280;45349;48.692;8.186;2023-02-15T05:47:04;99972.97;;;-1.39;100.00
59531;BME280;45349;48.692;8.186;2023-02-15T05:49:32;99974.69;;;-1.39;100.00
59531;BME280;45349;48.692;8.186;2023-02-15T05:51:59;99969.47;;;-1.36;100.00
59531;BME280;45349;48.692;8.186;2023-02-15T05:54:26;99961.78;;;-1.36;100.00
59531;BME280;45349;48.692;8.186;2023-02-15T05:56:52;99964.31;;;-1.35;100.00
59531;BME280;45349;48.692;8.186;2023-02-15T05:59:19;99954.97;;;-1.37;100.00
59531;BME280;45349;48.692;8.186;2023-02-15T06:01:47;99960.09;;;-1.37;100.00
59531;BME280;45349;48.692;8.186;2023-02-15T06:04:13;99961.13;;;-1.43;100.00
59531;BME280;45349;48.692;8.186;2023-02-15T06:06:40;99958.66;;;-1.46;100.00
59531;BME280;45349;48.692;8.186;2023-02-15T06:09:06;99964.69;;;-1.49;100.00
59531;BME280;45349;48.692;8.186;2023-02-15T06:11:33;99975.00;;;-1.52;100.00
59531;BME280;45349;48.692;8.186;2023-02-15T06:13:59;99973.63;;;-1.64;100.00
59531;BME280;45349;48.692;8.186;2023-02-15T06:16:26;99977.03;;;-1.63;100.00
59531;BME280;45349;48.692;8.186;2023-02-15T06:18:54;99985.50;;;-1.61;100.00
59531;BME280;45349;48.692;8.186;2023-02-15T06:21:20;99979.41;;;-1.57;100.00
59531;BME280;45349;48.692;8.186;2023-02-15T06:23:47;99987.81;;;-1.52;100.00
59531;BME280;45349;48.692;8.186;2023-02-15T06:26:13;99988.66;;;-1.51;100.00
59531;BME280;45349;48.692;8.186;2023-02-15T06:28:40;99993.69;;;-1.48;100.00
59531;BME280;45349;48.692;8.186;2023-02-15T06:31:07;99988.53;;;-1.46;100.00
59531;BME280;45349;48.692;8.186;2023-02-15T06:33:34;99998.25;;;-1.59;100.00
59531;BME280;45349;48.692;8.186;2023-02-15T06:36:02;99996.50;;;-1.57;100.00
59531;BME280;45349;48.692;8.186;2023-02-15T06:38:29;99999.09;;;-1.59;100.00
59531;BME280;45349;48.692;8.186;2023-02-15T06:40:56;99999.06;;;-1.57;100.00
59531;BME280;45349;48.692;8.186;2023-02-15T06:43:23;99997.31;;;-1.55;100.00
59531;BME280;45349;48.692;8.186;2023-02-15T06:45:50;99999.66;;;-1.48;100.00
59531;BME280;45349;48.692;8.186;2023-02-15T06:48:16;99991.13;;;-1.48;100.00
59531;BME280;45349;48.692;8.186;2023-02-15T06:50:43;99990.25;;;-1.47;100.00
59531;BME280;45349;48.692;8.186;2023-02-15T06:53:11;99995.25;;;-1.42;100.00
59531;BME280;45349;48.692;8.186;2023-02-15T06:55:37;99990.19;;;-1.44;100.00
59531;BME280;45349;48.692;8.186;2023-02-15T06:58:04;99996.84;;;-1.38;100.00
59531;BME280;45349;48.692;8.186;2023-02-15T07:00:31;100000.13;;;-1.33;100.00
59531;BME280;45349;48.692;8.186;2023-02-15T07:02:58;100000.03;;;-1.28;100.00
59531;BME280;45349;48.692;8.186;2023-02-15T07:05:25;99995.81;;;-1.31;100.00
59531;BME280;45349;48.692;8.186;2023-02-15T07:07:56;99998.41;;;-1.32;100.00
59531;BME280;45349;48.692;8.186;2023-02-15T07:10:24;99989.63;;;-1.24;100.00
59531;BME280;45349;48.692;8.186;2023-02-15T07:12:50;99997.38;;;-1.25;100.00
59531;BME280;45349;48.692;8.186;2023-02-15T07:15:18;100000.69;;;-1.22;100.00
59531;BME280;45349;48.692;8.186;2023-02-15T07:17:49;100004.19;;;-1.24;100.00
59531;BME280;45349;48.692;8.186;2023-02-15T07:20:17;100007.66;;;-1.27;100.00
59531;BME280;45349;48.692;8.186;2023-02-15T07:22:44;100011.88;;;-1.24;100.00
59531;BME280;45349;48.692;8.186;2023-02-15T07:25:12;100005.78;;;-1.20;100.00
59531;BME280;45349;48.692;8.186;2023-02-15T07:27:40;100002.41;;;-1.22;100.00
59531;BME280;45349;48.692;8.186;2023-02-15T07:30:09;100003.16;;;-1.19;100.00
59531;BME280;45349;48.692;8.186;2023-02-15T07:32:36;99999.16;;;-1.29;100.00
59531;BME280;45349;48.692;8.186;2023-02-15T07:35:22;100002.59;;;-1.30;100.00
59531;BME280;45349;48.692;8.186;2023-02-15T07:37:49;100002.25;;;-1.16;100.00
59531;BME280;45349;48.692;8.186;2023-02-15T07:40:15;100007.94;;;-1.06;100.00
59531;BME280;45349;48.692;8.186;2023-02-15T07:42:43;100004.34;;;-0.99;100.00
59531;BME280;45349;48.692;8.186;2023-02-15T07:45:10;100001.69;;;-0.96;100.00
59531;BME280;45349;48.692;8.186;2023-02-15T07:47:36;99994.78;;;-0.94;100.00
59531;BME280;45349;48.692;8.186;2023-02-15T07:50:04;99997.00;;;-0.81;100.00
59531;BME280;45349;48.692;8.186;2023-02-15T07:52:31;99996.84;;;-0.77;100.00
59531;BME280;45349;48.692;8.186;2023-02-15T07:54:57;99993.19;;;-0.68;100.00
59531;BME280;45349;48.692;8.186;2023-02-15T07:57:24;99982.97;;;-0.69;100.00
59531;BME280;45349;48.692;8.186;2023-02-15T07:59:52;99982.00;;;-0.65;100.00
59531;BME280;45349;48.692;8.186;2023-02-15T08:02:18;99979.63;;;-0.71;100.00
59531;BME280;45349;48.692;8.186;2023-02-15T08:04:45;99977.28;;;-0.79;100.00
59531;BME280;45349;48.692;8.186;2023-02-15T08:07:11;99976.69;;;-0.89;100.00
59531;BME280;45349;48.692;8.186;2023-02-15T08:09:38;99970.34;;;-0.76;100.00
59531;BME280;45349;48.692;8.186;2023-02-15T08:12:06;99968.53;;;-0.72;100.00
59531;BME280;45349;48.692;8.186;2023-02-15T08:14:32;99971.63;;;-0.61;100.00
59531;BME280;45349;48.692;8.186;2023-02-15T08:17:03;99965.00;;;-0.41;100.00
59531;BME280;45349;48.692;8.186;2023-02-15T08:19:32;99967.09;;;-0.25;100.00
59531;BME280;45349;48.692;8.186;2023-02-15T08:22:01;99968.97;;;-0.31;100.00
59531;BME280;45349;48.692;8.186;2023-02-15T08:24:29;99966.47;;;-0.32;100.00
59531;BME280;45349;48.692;8.186;2023-02-15T08:26:57;99961.78;;;-0.19;100.00
59531;BME280;45349;48.692;8.186;2023-02-15T08:29:26;99962.66;;;-0.20;100.00
59531;BME280;45349;48.692;8.186;2023-02-15T08:31:54;99965.53;;;-0.03;100.00
59531;BME280;45349;48.692;8.186;2023-02-15T08:34:25;99971.53;;;0.23;100.00
59531;BME280;45349;48.692;8.186;2023-02-15T08:36:52;99972.81;;;0.35;100.00
59531;BME280;45349;48.692;8.186;2023-02-15T08:39:19;99974.09;;;0.49;100.00
59531;BME280;45349;48.692;8.186;2023-02-15T08:41:47;99974.09;;;0.49;100.00
59531;BME280;45349;48.692;8.186;2023-02-15T08:44:14;99977.44;;;0.51;100.00
59531;BME280;45349;48.692;8.186;2023-02-15T08:46:43;99974.91;;;0.24;99.79
59531;BME280;45349;48.692;8.186;2023-02-15T08:49:13;99974.28;;;0.42;100.00
59531;BME280;45349;48.692;8.186;2023-02-15T08:51:42;99973.59;;;0.39;100.00
59531;BME280;45349;48.692;8.186;2023-02-15T08:54:10;99970.38;;;0.32;100.00
59531;BME280;45349;48.692;8.186;2023-02-15T08:56:39;99959.50;;;0.24;100.00
59531;BME280;45349;48.692;8.186;2023-02-15T08:59:11;99960.88;;;0.34;100.00
59531;BME280;45349;48.692;8.186;2023-02-15T09:01:38;99954.50;;;0.46;100.00
59531;BME280;45349;48.692;8.186;2023-02-15T09:04:07;99953.53;;;0.49;100.00
59531;BME280;45349;48.692;8.186;2023-02-15T09:06:35;99952.13;;;0.64;100.00
59531;BME280;45349;48.692;8.186;2023-02-15T09:09:04;99941.28;;;0.55;100.00
59531;BME280;45349;48.692;8.186;2023-02-15T09:11:35;99940.25;;;0.61;100.00
59531;BME280;45349;48.692;8.186;2023-02-15T09:14:04;99940.53;;;0.77;100.00
59531;BME280;45349;48.692;8.186;2023-02-15T09:16:34;99944.34;;;0.91;100.00
59531;BME280;45349;48.692;8.186;2023-02-15T09:19:01;99943.09;;;0.77;99.36
59531;BME280;45349;48.692;8.186;2023-02-15T09:21:31;99945.91;;;0.95;100.00
59531;BME280;45349;48.692;8.186;2023-02-15T09:23:59;99958.22;;;1.09;100.00
59531;BME280;45349;48.692;8.186;2023-02-15T09:26:29;99952.97;;;1.12;99.91
59531;BME280;45349;48.692;8.186;2023-02-15T09:28:58;99957.63;;;1.02;99.41
59531;BME280;45349;48.692;8.186;2023-02-15T09:31:27;99947.41;;;0.77;99.74
59531;BME280;45349;48.692;8.186;2023-02-15T09:33:55;99955.13;;;0.77;100.00
59531;BME280;45349;48.692;8.186;2023-02-15T09:36:25;99949.97;;;0.53;100.00
59531;BME280;45349;48.692;8.186;2023-02-15T09:38:55;99948.56;;;0.44;100.00
59531;BME280;45349;48.692;8.186;2023-02-15T09:41:38;99947.00;;;0.64;100.00
59531;BME280;45349;48.692;8.186;2023-02-15T09:44:15;99946.19;;;0.63;100.00
59531;BME280;45349;48.692;8.186;2023-02-15T09:47:08;99949.25;;;0.73;100.00
59531;BME280;45349;48.692;8.186;2023-02-15T09:49:42;99956.75;;;1.03;100.00
59531;BME280;45349;48.692;8.186;2023-02-15T09:52:20;99962.53;;;1.08;100.00
59531;BME280;45349;48.692;8.186;2023-02-15T09:54:59;99966.13;;;1.04;100.00
59531;BME280;45349;48.692;8.186;2023-02-15T09:57:37;99967.25;;;0.97;100.00
59531;BME280;45349;48.692;8.186;2023-02-15T10:00:17;99970.66;;;0.97;100.00
59531;BME280;45349;48.692;8.186;2023-02-15T10:03:09;99968.69;;;0.80;100.00
59531;BME280;45349;48.692;8.186;2023-02-15T10:05:44;99972.47;;;0.95;100.00
59531;BME280;45349;48.692;8.186;2023-02-15T10:08:29;99975.94;;;0.94;100.00
59531;BME280;45349;48.692;8.186;2023-02-15T10:11:05;99970.38;;;1.05;100.00
59531;BME280;45349;48.692;8.186;2023-02-15T10:14:01;99965.22;;;1.05;100.00
59531;BME280;45349;48.692;8.186;2023-02-15T10:16:41;99958.16;;;1.34;100.00
59531;BME280;45349;48.692;8.186;2023-02-15T10:19:18;99960.63;;;1.37;100.00
59531;BME280;45349;48.692;8.186;2023-02-15T10:21:57;99952.06;;;1.59;100.00
59531;BME280;45349;48.692;8.186;2023-02-15T10:24:39;99955.25;;;1.86;100.00
59531;BME280;45349;48.692;8.186;2023-02-15T10:27:15;99953.97;;;2.17;100.00
59531;BME280;45349;48.692;8.186;2023-02-15T10:29:54;99946.19;;;1.98;96.55
59531;BME280;45349;48.692;8.186;2023-02-15T10:32:27;99948.50;;;2.04;96.60
59531;BME280;45349;48.692;8.186;2023-02-15T10:34:58;99952.88;;;2.23;96.96
59531;BME280;45349;48.692;8.186;2023-02-15T10:37:44;99962.72;;;2.13;97.46
59531;BME280;45349;48.692;8.186;2023-02-15T10:40:22;99951.66;;;1.90;95.61
59531;BME280;45349;48.692;8.186;2023-02-15T10:43:05;99948.97;;;1.94;95.03
59531;BME280;45349;48.692;8.186;2023-02-15T10:45:43;99956.16;;;1.85;98.93
59531;BME280;45349;48.692;8.186;2023-02-15T10:48:46;99957.94;;;1.83;98.86
59531;BME280;45349;48.692;8.186;2023-02-15T10:51:24;99957.59;;;1.92;99.25
59531;BME280;45349;48.692;8.186;2023-02-15T10:54:05;99964.56;;;1.89;96.88
59531;BME280;45349;48.692;8.186;2023-02-15T10:56:38;99950.41;;;1.79;98.34
59531;BME280;45349;48.692;8.186;2023-02-15T10:59:23;99949.00;;;1.92;99.27
59531;BME280;45349;48.692;8.186;2023-02-15T11:01:59;99938.28;;;2.03;96.31
59531;BME280;45349;48.692;8.186;2023-02-15T11:04:40;99934.69;;;2.07;95.96
59531;BME280;45349;48.692;8.186;2023-02-15T11:07:15;99921.31;;;2.39;97.15
59531;BME280;45349;48.692;8.186;2023-02-15T11:09:45;99920.81;;;2.70;98.07
59531;BME280;45349;48.692;8.186;2023-02-15T11:12:19;99908.53;;;2.94;96.73
59531;BME280;45349;48.692;8.186;2023-02-15T11:14:51;99905.50;;;3.23;95.27
59531;BME280;45349;48.692;8.186;2023-02-15T11:17:23;99904.75;;;3.58;91.27
59531;BME280;45349;48.692;8.186;2023-02-15T11:19:56;99904.25;;;3.32;90.56
59531;BME280;45349;48.692;8.186;2023-02-15T11:22:29;99904.16;;;3.33;90.74
59531;BME280;45349;48.692;8.186;2023-02-15T11:24:57;99894.09;;;2.90;91.89
59531;BME280;45349;48.692;8.186;2023-02-15T11:27:27;99891.06;;;3.19;94.97
59531;BME280;45349;48.692;8.186;2023-02-15T11:29:58;99885.88;;;3.38;90.63
59531;BME280;45349;48.692;8.186;2023-02-15T11:32:28;99879.38;;;3.12;90.77
59531;BME280;45349;48.692;8.186;2023-02-15T11:35:00;99879.66;;;3.42;92.06
59531;BME280;45349;48.692;8.186;2023-02-15T11:37:33;99878.34;;;3.33;90.67
59531;BME280;45349;48.692;8.186;2023-02-15T11:40:02;99871.00;;;3.43;92.17
59531;BME280;45349;48.692;8.186;2023-02-15T11:42:31;99866.81;;;3.40;89.44
59531;BME280;45349;48.692;8.186;2023-02-15T11:45:02;99861.56;;;3.24;91.33
59531;BME280;45349;48.692;8.186;2023-02-15T11:47:32;99859.38;;;3.52;92.44
59531;BME280;45349;48.692;8.186;2023-02-15T11:49:59;99851.50;;;3.55;91.47
59531;BME280;45349;48.692;8.186;2023-02-15T11:52:26;99856.28;;;3.63;92.94
59531;BME280;45349;48.692;8.186;2023-02-15T11:54:52;99859.31;;;3.71;90.84
59531;BME280;45349;48.692;8.186;2023-02-15T11:57:23;99859.47;;;3.50;89.76
59531;BME280;45349;48.692;8.186;2023-02-15T11:59:56;99855.38;;;3.46;89.71
59531;BME280;45349;48.692;8.186;2023-02-15T12:02:25;99856.06;;;3.67;90.57
59531;BME280;45349;48.692;8.186;2023-02-15T12:05:00;99853.47;;;3.50;89.50
59531;BME280;45349;48.692;8.186;2023-02-15T12:07:32;99850.53;;;3.21;89.15
59531;BME280;45349;48.692;8.186;2023-02-15T12:10:03;99855.56;;;3.24;90.68
59531;BME280;45349;48.692;8.186;2023-02-15T12:12:33;99851.22;;;3.07;94.26
59531;BME280;45349;48.692;8.186;2023-02-15T12:15:03;99838.03;;;3.13;94.19
59531;BME280;45349;48.692;8.186;2023-02-15T12:17:33;99837.50;;;3.24;92.61
59531;BME280;45349;48.692;8.186;2023-02-15T12:20:04;99835.16;;;3.37;93.00
59531;BME280;45349;48.692;8.186;2023-02-15T12:22:35;99827.34;;;3.56;93.41
59531;BME280;45349;48.692;8.186;2023-02-15T12:25:17;99822.66;;;3.98;91.45
59531;BME280;45349;48.692;8.186;2023-02-15T12:27:46;99820.63;;;4.05;90.40
59531;BME280;45349;48.692;8.186;2023-02-15T12:30:28;99816.88;;;4.10;88.70
59531;BME280;45349;48.692;8.186;2023-02-15T12:32:59;99813.03;;;4.18;88.60
59531;BME280;45349;48.692;8.186;2023-02-15T12:35:34;99821.28;;;4.08;90.72
59531;BME280;45349;48.692;8.186;2023-02-15T12:38:04;99819.78;;;4.04;90.09
59531;BME280;45349;48.692;8.186;2023-02-15T12:40:32;99828.38;;;4.05;89.24
59531;BME280;45349;48.692;8.186;2023-02-15T12:43:01;99825.88;;;3.86;89.09
59531;BME280;45349;48.692;8.186;2023-02-15T12:45:34;99830.19;;;3.51;90.88
59531;BME280;45349;48.692;8.186;2023-02-15T12:48:19;99822.63;;;3.12;91.15
59531;BME280;45349;48.692;8.186;2023-02-15T12:50:48;99820.13;;;3.28;93.50
59531;BME280;45349;48.692;8.186;2023-02-15T12:53:18;99826.34;;;3.23;94.30
59531;BME280;45349;48.692;8.186;2023-02-15T12:55:50;99816.19;;;3.20;95.83
59531;BME280;45349;48.692;8.186;2023-02-15T12:58:19;99807.69;;;3.36;94.05
59531;BME280;45349;48.692;8.186;2023-02-15T13:00:47;99814.91;;;3.47;93.69
59531;BME280;45349;48.692;8.186;2023-02-15T13:03:17;99810.63;;;3.46;93.11
59531;BME280;45349;48.692;8.186;2023-02-15T13:05:48;99809.06;;;3.43;93.38
59531;BME280;45349;48.692;8.186;2023-02-15T13:08:19;99808.50;;;3.54;93.80
59531;BME280;45349;48.692;8.186;2023-02-15T13:10:53;99797.44;;;3.52;93.86
59531;BME280;45349;48.692;8.186;2023-02-15T13:13:24;99794.81;;;3.87;91.70
59531;BME280;45349;48.692;8.186;2023-02-15T13:15:54;99785.47;;;3.84;90.67
59531;BME280;45349;48.692;8.186;2023-02-15T13:18:29;99782.69;;;3.72;91.05
59531;BME280;45349;48.692;8.186;2023-02-15T13:21:00;99781.31;;;3.82;92.35
59531;BME280;45349;48.692;8.186;2023-02-15T13:23:31;99777.97;;;3.80;92.27